Pagrindinis puslapis
METAR-TAF:

METAR-TAF

Oro uostai :

Rionė, Danija

platuma: 55-04N, ilguma: 014-45E, Aukštis: 16 m

Dabartinis oras

Ataskaita buvo paskelbta 37 minutes, ne 09:20 UTC
Ramus vėjas
Temperatūra 1°C
Drėgmė 86%
Slėgis 1005 hPa
Matomumas 10 km arba daugiau

METAR: EKRN 070920Z AUTO 00000KT 9999 BKN014/// 01/M01 Q1005

Laikas: 10:57 (09:57 UTC)

Prognozė

Ataskaita buvo paskelbta 1 valandą ir 36 minutes, ne 08:21 UTC
Prognozė galioja nuo 07 metu 09 UTC su 07 metu 18 UTC
Vėjas 6 kt iš Šiaurės Vakarų
Matomumas 10 km arba daugiau
Išsisklaidę debesys ne aukštis 2000 ft

TAF: EKRN 070821Z 0709/0718 32006KT 9999 SCT020

Orai ataskaitas ir orų prognozės (METAR, TAF).

turimą stotys yra geltonos ir raudonos taškus žemėlapyje.

Perkelti pele per norėdami pamatyti stoties vardą.

Tada spustelėkite, norėdami matyti oro stebėjimo ir prognozės.

Norėdami pakeisti žemėlapį: spustelėkite ant žalios mygtukų su juodo kryžiaus žemyn,; žalią mygtuką su brūkšneliu, jei norite nutolinti; arba žalių rodyklių gretimoms žemėlapius.


METAR-TAF: